sensor_id;sensor_type;location;lat;lon;timestamp;pressure;altitude;pressure_sealevel;temperature;humidity
7337;BME280;54510;42.016;23.098;2022-11-02T00:02:15;-21583.53;;;16.36;52.93
7337;BME280;54510;42.016;23.098;2022-11-02T00:04:40;-21548.91;;;15.09;56.13
7337;BME280;54510;42.016;23.098;2022-11-02T00:07:06;-21562.03;;;15.57;55.42
7337;BME280;54510;42.016;23.098;2022-11-02T00:09:31;-21563.53;;;15.63;55.17
7337;BME280;54510;42.016;23.098;2022-11-02T00:11:57;-21550.97;;;15.17;56.49
7337;BME280;54510;42.016;23.098;2022-11-02T00:14:22;-21551.94;;;15.20;57.27
7337;BME280;54510;42.016;23.098;2022-11-02T00:16:47;-21565.22;;;15.69;55.37
7337;BME280;54510;42.016;23.098;2022-11-02T00:19:13;-21553.75;;;15.27;55.72
7337;BME280;54510;42.016;23.098;2022-11-02T00:21:39;-21556.38;;;15.36;55.46
7337;BME280;54510;42.016;23.098;2022-11-02T00:24:05;-21550.97;;;15.17;55.93
7337;BME280;54510;42.016;23.098;2022-11-02T00:26:32;-21553.19;;;15.25;55.59
7337;BME280;54510;42.016;23.098;2022-11-02T00:28:58;-21546.28;;;14.99;56.75
7337;BME280;54510;42.016;23.098;2022-11-02T00:31:24;-21551.53;;;15.19;56.25
7337;BME280;54510;42.016;23.098;2022-11-02T00:33:50;-21559.94;;;15.50;55.42
7337;BME280;54510;42.016;23.098;2022-11-02T00:36:16;-21555.25;;;15.32;55.23
7337;BME280;54510;42.016;23.098;2022-11-02T00:38:41;-21553.75;;;15.27;55.92
7337;BME280;54510;42.016;23.098;2022-11-02T00:41:07;-21551.81;;;15.20;55.98
7337;BME280;54510;42.016;23.098;2022-11-02T00:43:32;-21554.72;;;15.30;55.40
7337;BME280;54510;42.016;23.098;2022-11-02T00:45:58;-21548.91;;;15.09;55.90
7337;BME280;54510;42.016;23.098;2022-11-02T00:48:23;-21543.13;;;14.88;57.28
7337;BME280;54510;42.016;23.098;2022-11-02T00:50:48;-21554.16;;;15.28;56.08
7337;BME280;54510;42.016;23.098;2022-11-02T00:53:14;-21564.66;;;15.67;54.99
7337;BME280;54510;42.016;23.098;2022-11-02T00:55:39;-21565.88;;;15.71;54.70
7337;BME280;54510;42.016;23.098;2022-11-02T00:58:04;-21563.41;;;15.62;55.23
7337;BME280;54510;42.016;23.098;2022-11-02T01:00:30;-21546.16;;;14.99;56.19
7337;BME280;54510;42.016;23.098;2022-11-02T01:03:00;-21543.94;;;14.91;55.87
7337;BME280;54510;42.016;23.098;2022-11-02T01:05:25;-21538.56;;;14.71;57.03
7337;BME280;54510;42.016;23.098;2022-11-02T01:07:51;-21548.91;;;15.09;55.83
7337;BME280;54510;42.016;23.098;2022-11-02T01:10:17;-21552.78;;;15.23;55.16
7337;BME280;54510;42.016;23.098;2022-11-02T01:12:42;-21557.47;;;15.40;54.32
7337;BME280;54510;42.016;23.098;2022-11-02T01:15:08;-21545.59;;;14.97;55.38
7337;BME280;54510;42.016;23.098;2022-11-02T01:17:35;-21544.22;;;14.92;55.69
7337;BME280;54510;42.016;23.098;2022-11-02T01:20:01;-21541.88;;;14.83;55.54
7337;BME280;54510;42.016;23.098;2022-11-02T01:22:26;-21531.38;;;14.45;57.19
7337;BME280;54510;42.016;23.098;2022-11-02T01:24:52;-21543.66;;;14.90;55.97
7337;BME280;54510;42.016;23.098;2022-11-02T01:27:17;-21551.94;;;15.20;55.22
7337;BME280;54510;42.016;23.098;2022-11-02T01:29:42;-21556.22;;;15.36;54.80
7337;BME280;54510;42.016;23.098;2022-11-02T01:32:08;-21564.78;;;15.67;54.17
7337;BME280;54510;42.016;23.098;2022-11-02T01:34:33;-21567.41;;;15.77;53.71
7337;BME280;54510;42.016;23.098;2022-11-02T01:36:59;-21570.16;;;15.87;53.45
7337;BME280;54510;42.016;23.098;2022-11-02T01:39:24;-21549.19;;;15.10;54.94
7337;BME280;54510;42.016;23.098;2022-11-02T01:41:51;-21555.00;;;15.31;54.68
7337;BME280;54510;42.016;23.098;2022-11-02T01:44:30;-21553.88;;;15.27;54.40
7337;BME280;54510;42.016;23.098;2022-11-02T01:47:04;-21548.22;;;15.07;54.83
7337;BME280;54510;42.016;23.098;2022-11-02T01:49:33;-21552.50;;;15.22;55.02
7337;BME280;54510;42.016;23.098;2022-11-02T01:52:13;-21559.69;;;15.49;54.29
7337;BME280;54510;42.016;23.098;2022-11-02T01:54:44;-21567.13;;;15.76;53.64
7337;BME280;54510;42.016;23.098;2022-11-02T01:57:15;-21569.47;;;15.85;53.18
7337;BME280;54510;42.016;23.098;2022-11-02T01:59:46;-21567.69;;;15.78;53.46
7337;BME280;54510;42.016;23.098;2022-11-02T02:02:19;-21567.97;;;15.79;53.51
7337;BME280;54510;42.016;23.098;2022-11-02T02:04:48;-21573.75;;;16.00;52.90
7337;BME280;54510;42.016;23.098;2022-11-02T02:07:15;-21565.75;;;15.71;53.38
7337;BME280;54510;42.016;23.098;2022-11-02T02:09:41;-21567.00;;;15.75;53.25
7337;BME280;54510;42.016;23.098;2022-11-02T02:12:06;-21570.44;;;15.88;53.09
7337;BME280;54510;42.016;23.098;2022-11-02T02:14:32;-21568.66;;;15.82;52.72
7337;BME280;54510;42.016;23.098;2022-11-02T02:25:25;-21548.38;;;15.07;54.46
7337;BME280;54510;42.016;23.098;2022-11-02T02:28:35;-21559.41;;;15.48;54.00
7337;BME280;54510;42.016;23.098;2022-11-02T02:31:18;-21554.84;;;15.31;53.78
7337;BME280;54510;42.016;23.098;2022-11-02T02:34:05;-21536.75;;;14.65;56.22
7337;BME280;54510;42.016;23.098;2022-11-02T02:44:23;-21553.88;;;15.27;54.39
7337;BME280;54510;42.016;23.098;2022-11-02T02:46:58;-21555.81;;;15.34;53.90
7337;BME280;54510;42.016;23.098;2022-11-02T02:49:31;-21540.34;;;14.78;54.65
7337;BME280;54510;42.016;23.098;2022-11-02T02:52:00;-21538.69;;;14.72;55.51
7337;BME280;54510;42.016;23.098;2022-11-02T02:54:31;-21538.84;;;14.72;55.33
7337;BME280;54510;42.016;23.098;2022-11-02T02:57:01;-21535.94;;;14.61;55.78
7337;BME280;54510;42.016;23.098;2022-11-02T02:59:48;-21514.38;;;13.82;58.73
7337;BME280;54510;42.016;23.098;2022-11-02T03:02:23;-21525.84;;;14.24;58.07
7337;BME280;54510;42.016;23.098;2022-11-02T03:04:50;-21527.09;;;14.29;57.84
7337;BME280;54510;42.016;23.098;2022-11-02T03:07:23;-21525.72;;;14.24;57.81
7337;BME280;54510;42.016;23.098;2022-11-02T03:10:00;-21528.19;;;14.33;57.57
7337;BME280;54510;42.016;23.098;2022-11-02T03:17:51;-21531.66;;;14.46;57.16
7337;BME280;54510;42.016;23.098;2022-11-02T03:20:28;-21532.34;;;14.48;57.07
7337;BME280;54510;42.016;23.098;2022-11-02T03:23:03;-21534.28;;;14.55;56.78
7337;BME280;54510;42.016;23.098;2022-11-02T03:28:15;-21527.78;;;14.32;56.90
7337;BME280;54510;42.016;23.098;2022-11-02T03:30:45;-21526.13;;;14.26;56.52
7337;BME280;54510;42.016;23.098;2022-11-02T03:33:25;-21528.75;;;14.35;56.24
7337;BME280;54510;42.016;23.098;2022-11-02T03:35:56;-21529.16;;;14.37;55.75
7337;BME280;54510;42.016;23.098;2022-11-02T03:38:33;-21534.56;;;14.56;55.60
7337;BME280;54510;42.016;23.098;2022-11-02T03:41:00;-21532.47;;;14.49;55.21
7337;BME280;54510;42.016;23.098;2022-11-02T03:43:27;-21537.03;;;14.66;55.08
7337;BME280;54510;42.016;23.098;2022-11-02T03:45:56;-21534.13;;;14.55;54.90
7337;BME280;54510;42.016;23.098;2022-11-02T03:48:28;-21538.00;;;14.69;54.96
7337;BME280;54510;42.016;23.098;2022-11-02T03:50:57;-21535.66;;;14.60;55.07
7337;BME280;54510;42.016;23.098;2022-11-02T03:53:31;-21539.13;;;14.73;54.70
7337;BME280;54510;42.016;23.098;2022-11-02T03:56:03;-21540.06;;;14.77;55.03
7337;BME280;54510;42.016;23.098;2022-11-02T03:58:30;-21538.84;;;14.72;54.80
7337;BME280;54510;42.016;23.098;2022-11-02T04:00:59;-21534.69;;;14.57;55.06
7337;BME280;54510;42.016;23.098;2022-11-02T04:03:26;-21537.72;;;14.68;54.75
7337;BME280;54510;42.016;23.098;2022-11-02T04:05:52;-21528.47;;;14.34;55.74
7337;BME280;54510;42.016;23.098;2022-11-02T04:08:38;-21521.97;;;14.10;56.75
7337;BME280;54510;42.016;23.098;2022-11-02T04:11:04;-21525.84;;;14.24;56.17
7337;BME280;54510;42.016;23.098;2022-11-02T04:13:49;-21528.47;;;14.34;56.01
7337;BME280;54510;42.016;23.098;2022-11-02T04:16:33;-21531.94;;;14.47;55.48
7337;BME280;54510;42.016;23.098;2022-11-02T04:18:58;-21513.41;;;13.79;57.05
7337;BME280;54510;42.016;23.098;2022-11-02T04:21:42;-21511.19;;;13.71;57.75
7337;BME280;54510;42.016;23.098;2022-11-02T04:24:27;-21510.78;;;13.69;57.69
7337;BME280;54510;42.016;23.098;2022-11-02T04:27:11;-21509.25;;;13.64;58.00
7337;BME280;54510;42.016;23.098;2022-11-02T04:29:36;-21514.09;;;13.81;57.36
7337;BME280;54510;42.016;23.098;2022-11-02T04:32:02;-21511.59;;;13.72;57.54
7337;BME280;54510;42.016;23.098;2022-11-02T04:34:27;-21517.41;;;13.94;57.07
7337;BME280;54510;42.016;23.098;2022-11-02T04:36:52;-21521.41;;;14.08;56.66
7337;BME280;54510;42.016;23.098;2022-11-02T04:39:18;-21515.19;;;13.85;57.34
7337;BME280;54510;42.016;23.098;2022-11-02T04:41:43;-21503.88;;;13.44;58.41
7337;BME280;54510;42.016;23.098;2022-11-02T04:44:10;-21496.94;;;13.19;59.38
7337;BME280;54510;42.016;23.098;2022-11-02T04:46:37;-21498.59;;;13.25;58.91
7337;BME280;54510;42.016;23.098;2022-11-02T04:49:03;-21507.31;;;13.57;58.12
7337;BME280;54510;42.016;23.098;2022-11-02T04:51:29;-21515.63;;;13.87;56.78
7337;BME280;54510;42.016;23.098;2022-11-02T04:53:55;-21502.75;;;13.40;57.72
7337;BME280;54510;42.016;23.098;2022-11-02T04:56:22;-21497.22;;;13.20;58.58
7337;BME280;54510;42.016;23.098;2022-11-02T04:58:52;-21496.53;;;13.17;58.55
7337;BME280;54510;42.016;23.098;2022-11-02T05:01:19;-21497.91;;;13.22;58.72
7337;BME280;54510;42.016;23.098;2022-11-02T05:03:46;-21501.22;;;13.34;57.76
7337;BME280;54510;42.016;23.098;2022-11-02T05:06:12;-21502.47;;;13.39;57.31
7337;BME280;54510;42.016;23.098;2022-11-02T05:08:38;-21495.28;;;13.13;57.44
7337;BME280;54510;42.016;23.098;2022-11-02T05:11:04;-21502.75;;;13.40;57.29
7337;BME280;54510;42.016;23.098;2022-11-02T05:13:30;-21508.56;;;13.61;56.74
7337;BME280;54510;42.016;23.098;2022-11-02T05:15:56;-21514.38;;;13.82;56.00
7337;BME280;54510;42.016;23.098;2022-11-02T05:18:23;-21519.50;;;14.01;55.59
7337;BME280;54510;42.016;23.098;2022-11-02T05:20:50;-21508.00;;;13.59;56.00
7337;BME280;54510;42.016;23.098;2022-11-02T05:23:16;-21513.00;;;13.77;55.95
7337;BME280;54510;42.016;23.098;2022-11-02T05:25:41;-21515.75;;;13.88;55.40
7337;BME280;54510;42.016;23.098;2022-11-02T05:28:07;-21515.47;;;13.87;55.25
7337;BME280;54510;42.016;23.098;2022-11-02T05:30:32;-21512.84;;;13.77;55.41
7337;BME280;54510;42.016;23.098;2022-11-02T05:32:57;-21513.97;;;13.81;55.69
7337;BME280;54510;42.016;23.098;2022-11-02T05:35:23;-21516.72;;;13.91;55.74
7337;BME280;54510;42.016;23.098;2022-11-02T05:37:48;-21519.34;;;14.01;55.73
7337;BME280;54510;42.016;23.098;2022-11-02T05:40:14;-21517.97;;;13.96;55.58
7337;BME280;54510;42.016;23.098;2022-11-02T05:42:39;-21522.81;;;14.13;55.73
7337;BME280;54510;42.016;23.098;2022-11-02T05:45:05;-21525.44;;;14.23;55.42
7337;BME280;54510;42.016;23.098;2022-11-02T05:47:32;-21520.72;;;14.06;55.61
7337;BME280;54510;42.016;23.098;2022-11-02T05:49:58;-21521.97;;;14.10;55.82
7337;BME280;54510;42.016;23.098;2022-11-02T05:52:23;-21523.50;;;14.16;55.92
7337;BME280;54510;42.016;23.098;2022-11-02T05:54:48;-21529.16;;;14.37;55.54
7337;BME280;54510;42.016;23.098;2022-11-02T05:57:14;-21531.94;;;14.47;55.21
7337;BME280;54510;42.016;23.098;2022-11-02T05:59:41;-21527.22;;;14.30;54.95
7337;BME280;54510;42.016;23.098;2022-11-02T06:02:06;-21535.25;;;14.59;54.83
7337;BME280;54510;42.016;23.098;2022-11-02T06:04:32;-21534.84;;;14.57;54.76
7337;BME280;54510;42.016;23.098;2022-11-02T06:06:57;-21540.63;;;14.79;54.36
7337;BME280;54510;42.016;23.098;2022-11-02T06:09:23;-21542.56;;;14.86;54.40
7337;BME280;54510;42.016;23.098;2022-11-02T06:11:48;-21543.94;;;14.91;54.19
7337;BME280;54510;42.016;23.098;2022-11-02T06:14:14;-21545.31;;;14.96;54.08
7337;BME280;54510;42.016;23.098;2022-11-02T06:16:39;-21546.44;;;15.00;54.30
7337;BME280;54510;42.016;23.098;2022-11-02T06:19:04;-21545.19;;;14.95;54.30
7337;BME280;54510;42.016;23.098;2022-11-02T06:21:30;-21548.63;;;15.08;54.07
7337;BME280;54510;42.016;23.098;2022-11-02T06:23:55;-21549.47;;;15.11;53.45
7337;BME280;54510;42.016;23.098;2022-11-02T06:26:23;-21550.44;;;15.15;53.29
7337;BME280;54510;42.016;23.098;2022-11-02T06:28:48;-21548.22;;;15.07;53.34
7337;BME280;54510;42.016;23.098;2022-11-02T06:31:14;-21548.22;;;15.07;53.74
7337;BME280;54510;42.016;23.098;2022-11-02T06:33:42;-21552.50;;;15.22;53.17
7337;BME280;54510;42.016;23.098;2022-11-02T06:36:08;-21546.56;;;15.00;52.98
7337;BME280;54510;42.016;23.098;2022-11-02T06:38:33;-21553.06;;;15.24;52.86
7337;BME280;54510;42.016;23.098;2022-11-02T06:41:01;-21554.16;;;15.28;52.57
7337;BME280;54510;42.016;23.098;2022-11-02T06:43:28;-21552.38;;;15.22;52.79
7337;BME280;54510;42.016;23.098;2022-11-02T06:45:54;-21550.44;;;15.15;53.08
7337;BME280;54510;42.016;23.098;2022-11-02T06:48:20;-21552.91;;;15.24;52.80
7337;BME280;54510;42.016;23.098;2022-11-02T06:50:45;-21550.84;;;15.16;52.96
7337;BME280;54510;42.016;23.098;2022-11-02T06:53:11;-21550.72;;;15.16;52.75
7337;BME280;54510;42.016;23.098;2022-11-02T06:55:36;-21558.03;;;15.42;52.83
7337;BME280;54510;42.016;23.098;2022-11-02T06:58:02;-21561.47;;;15.55;52.24
7337;BME280;54510;42.016;23.098;2022-11-02T07:00:27;-21562.84;;;15.60;52.21
7337;BME280;54510;42.016;23.098;2022-11-02T07:03:08;-21560.22;;;15.51;52.56
7337;BME280;54510;42.016;23.098;2022-11-02T07:05:34;-21563.28;;;15.62;52.27
7337;BME280;54510;42.016;23.098;2022-11-02T07:08:00;-21579.69;;;16.22;51.46
7337;BME280;54510;42.016;23.098;2022-11-02T07:10:26;-21583.81;;;16.37;50.89
7337;BME280;54510;42.016;23.098;2022-11-02T07:12:55;-21579.53;;;16.22;51.41
7337;BME280;54510;42.016;23.098;2022-11-02T07:15:21;-21576.25;;;16.09;52.49
7337;BME280;54510;42.016;23.098;2022-11-02T07:17:47;-21589.31;;;16.57;50.82
7337;BME280;54510;42.016;23.098;2022-11-02T07:20:13;-21583.69;;;16.37;51.27
7337;BME280;54510;42.016;23.098;2022-11-02T07:22:38;-21589.19;;;16.57;50.74
7337;BME280;54510;42.016;23.098;2022-11-02T07:25:04;-21594.16;;;16.75;50.43
7337;BME280;54510;42.016;23.098;2022-11-02T07:27:29;-21597.47;;;16.87;50.06
7337;BME280;54510;42.016;23.098;2022-11-02T07:29:55;-21601.31;;;17.02;50.23
7337;BME280;54510;42.016;23.098;2022-11-02T07:32:20;-21604.47;;;17.13;49.33
7337;BME280;54510;42.016;23.098;2022-11-02T07:34:46;-21609.16;;;17.30;49.62
7337;BME280;54510;42.016;23.098;2022-11-02T07:37:11;-21608.34;;;17.27;49.61
7337;BME280;54510;42.016;23.098;2022-11-02T07:39:36;-21613.97;;;17.48;49.84
7337;BME280;54510;42.016;23.098;2022-11-02T07:42:02;-21609.16;;;17.30;50.37
7337;BME280;54510;42.016;23.098;2022-11-02T07:44:28;-21607.94;;;17.26;49.38
7337;BME280;54510;42.016;23.098;2022-11-02T07:46:55;-21607.78;;;17.25;50.52
7337;BME280;54510;42.016;23.098;2022-11-02T07:49:21;-21613.69;;;17.47;49.75
7337;BME280;54510;42.016;23.098;2022-11-02T07:51:46;-21621.13;;;17.74;49.83
7337;BME280;54510;42.016;23.098;2022-11-02T07:54:11;-21621.41;;;17.75;49.06
7337;BME280;54510;42.016;23.098;2022-11-02T07:56:37;-21620.88;;;17.73;48.71
7337;BME280;54510;42.016;23.098;2022-11-02T07:59:02;-21625.81;;;17.92;48.68
7337;BME280;54510;42.016;23.098;2022-11-02T08:01:27;-21631.44;;;18.12;48.33
7337;BME280;54510;42.016;23.098;2022-11-02T08:03:53;-21625.81;;;17.92;48.23
7337;BME280;54510;42.016;23.098;2022-11-02T08:06:18;-21623.88;;;17.85;48.42
7337;BME280;54510;42.016;23.098;2022-11-02T08:08:44;-21623.34;;;17.83;48.59
7337;BME280;54510;42.016;23.098;2022-11-02T08:11:09;-21629.94;;;18.07;48.34
7337;BME280;54510;42.016;23.098;2022-11-02T08:13:36;-21635.31;;;18.27;47.82
7337;BME280;54510;42.016;23.098;2022-11-02T08:16:02;-21647.66;;;18.72;47.27
7337;BME280;54510;42.016;23.098;2022-11-02T08:18:28;-21651.94;;;18.88;46.92
7337;BME280;54510;42.016;23.098;2022-11-02T08:20:57;-21639.00;;;18.40;47.62
7337;BME280;54510;42.016;23.098;2022-11-02T08:23:24;-21636.94;;;18.33;47.70
7337;BME280;54510;42.016;23.098;2022-11-02T08:25:51;-21640.25;;;18.45;47.70
7337;BME280;54510;42.016;23.098;2022-11-02T08:28:20;-21649.88;;;18.80;46.87
7337;BME280;54510;42.016;23.098;2022-11-02T08:30:46;-21654.28;;;18.97;46.90
7337;BME280;54510;42.016;23.098;2022-11-02T08:33:12;-21651.38;;;18.86;46.34
7337;BME280;54510;42.016;23.098;2022-11-02T08:35:40;-21651.94;;;18.88;46.25
7337;BME280;54510;42.016;23.098;2022-11-02T08:38:07;-21645.19;;;18.63;46.77
7337;BME280;54510;42.016;23.098;2022-11-02T08:40:33;-21641.75;;;18.50;47.23
7337;BME280;54510;42.016;23.098;2022-11-02T08:43:05;-21639.69;;;18.43;47.21
7337;BME280;54510;42.016;23.098;2022-11-02T08:45:32;-21641.22;;;18.48;47.23
7337;BME280;54510;42.016;23.098;2022-11-02T08:47:58;-21658.94;;;19.14;46.01
7337;BME280;54510;42.016;23.098;2022-11-02T08:50:24;-21660.84;;;19.21;45.91
7337;BME280;54510;42.016;23.098;2022-11-02T08:52:49;-21671.69;;;19.61;45.67
7337;BME280;54510;42.016;23.098;2022-11-02T08:55:15;-21677.47;;;19.82;44.69
7337;BME280;54510;42.016;23.098;2022-11-02T08:57:59;-21681.03;;;19.95;44.84
7337;BME280;54510;42.016;23.098;2022-11-02T09:00:27;-21687.63;;;20.20;44.19
7337;BME280;54510;42.016;23.098;2022-11-02T09:05:29;-21684.19;;;20.07;44.34
7337;BME280;54510;42.016;23.098;2022-11-02T09:07:57;-21680.06;;;19.92;44.32
7337;BME280;54510;42.016;23.098;2022-11-02T09:10:23;-21677.88;;;19.84;44.33
7337;BME280;54510;42.016;23.098;2022-11-02T09:12:48;-21678.56;;;19.86;44.35
7337;BME280;54510;42.016;23.098;2022-11-02T09:15:14;-21687.63;;;20.20;43.95
7337;BME280;54510;42.016;23.098;2022-11-02T09:17:39;-21692.84;;;20.39;43.51
7337;BME280;54510;42.016;23.098;2022-11-02T09:20:05;-21690.50;;;20.30;43.71
7337;BME280;54510;42.016;23.098;2022-11-02T09:22:30;-21703.25;;;20.77;42.93
7337;BME280;54510;42.016;23.098;2022-11-02T09:24:56;-21711.88;;;21.09;42.19
7337;BME280;54510;42.016;23.098;2022-11-02T09:27:21;-21716.94;;;21.28;41.94
7337;BME280;54510;42.016;23.098;2022-11-02T09:29:47;-21718.84;;;21.35;41.80
7337;BME280;54510;42.016;23.098;2022-11-02T09:32:12;-21722.69;;;21.49;41.32
7337;BME280;54510;42.016;23.098;2022-11-02T09:34:37;-21721.19;;;21.44;41.52
7337;BME280;54510;42.016;23.098;2022-11-02T09:37:04;-21724.19;;;21.55;40.83
7337;BME280;54510;42.016;23.098;2022-11-02T09:39:29;-21731.31;;;21.81;40.41
7337;BME280;54510;42.016;23.098;2022-11-02T09:42:03;-21725.16;;;21.58;40.89
7337;BME280;54510;42.016;23.098;2022-11-02T09:44:46;-21728.56;;;21.71;40.57
7337;BME280;54510;42.016;23.098;2022-11-02T09:47:14;-21733.63;;;21.90;40.17
7337;BME280;54510;42.016;23.098;2022-11-02T09:49:41;-21733.38;;;21.89;40.40
7337;BME280;54510;42.016;23.098;2022-11-02T09:52:13;-21738.28;;;22.07;40.27
7337;BME280;54510;42.016;23.098;2022-11-02T09:54:46;-21746.09;;;22.36;39.29
7337;BME280;54510;42.016;23.098;2022-11-02T09:57:16;-21745.13;;;22.32;39.53
7337;BME280;54510;42.016;23.098;2022-11-02T09:59:44;-21753.88;;;22.65;39.18
7337;BME280;54510;42.016;23.098;2022-11-02T10:05:23;-21756.88;;;22.76;38.59
7337;BME280;54510;42.016;23.098;2022-11-02T10:10:45;-21768.34;;;23.18;37.68
7337;BME280;54510;42.016;23.098;2022-11-02T10:13:39;-21770.13;;;23.25;37.28
7337;BME280;54510;42.016;23.098;2022-11-02T10:16:14;-21772.56;;;23.34;36.96
7337;BME280;54510;42.016;23.098;2022-11-02T10:18:42;-21774.91;;;23.43;36.67
7337;BME280;54510;42.016;23.098;2022-11-02T10:21:11;-21773.00;;;23.36;36.40
7337;BME280;54510;42.016;23.098;2022-11-02T10:23:52;-21781.03;;;23.66;36.40
7337;BME280;54510;42.016;23.098;2022-11-02T10:26:28;-21782.28;;;23.70;36.05
7337;BME280;54510;42.016;23.098;2022-11-02T10:28:59;-21786.09;;;23.84;35.53
7337;BME280;54510;42.016;23.098;2022-11-02T10:31:33;-21792.91;;;24.10;35.27
7337;BME280;54510;42.016;23.098;2022-11-02T10:34:15;-21793.03;;;24.10;35.21
7337;BME280;54510;42.016;23.098;2022-11-02T10:47:17;-21797.69;;;24.27;34.95
7337;BME280;54510;42.016;23.098;2022-11-02T10:50:22;-21792.91;;;24.10;35.41
7337;BME280;54510;42.016;23.098;2022-11-02T10:52:59;-21799.88;;;24.35;34.89
7337;BME280;54510;42.016;23.098;2022-11-02T10:55:30;-21804.63;;;24.53;33.86
7337;BME280;54510;42.016;23.098;2022-11-02T10:58:03;-21808.44;;;24.67;33.84
7337;BME280;54510;42.016;23.098;2022-11-02T11:00:30;-21808.72;;;24.68;33.42
7337;BME280;54510;42.016;23.098;2022-11-02T11:03:15;-21812.41;;;24.82;33.28
7337;BME280;54510;42.016;23.098;2022-11-02T11:08:35;-21822.63;;;25.20;33.04
7337;BME280;54510;42.016;23.098;2022-11-02T11:11:24;-21823.03;;;25.22;33.50
7337;BME280;54510;42.016;23.098;2022-11-02T11:16:41;-21829.97;;;25.47;33.17
7337;BME280;54510;42.016;23.098;2022-11-02T11:20:07;-21835.13;;;25.67;32.51
7337;BME280;54510;42.016;23.098;2022-11-02T11:22:39;-21835.41;;;25.68;32.72
7337;BME280;54510;42.016;23.098;2022-11-02T11:25:24;-21834.19;;;25.63;32.14
7337;BME280;54510;42.016;23.098;2022-11-02T11:27:57;-21832.00;;;25.55;32.30
7337;BME280;54510;42.016;23.098;2022-11-02T11:32:54;-21840.84;;;25.88;32.24
7337;BME280;54510;42.016;23.098;2022-11-02T11:35:20;-21837.84;;;25.77;32.18
7337;BME280;54510;42.016;23.098;2022-11-02T11:38:08;-21835.28;;;25.67;32.40
7337;BME280;54510;42.016;23.098;2022-11-02T11:40:42;-21842.22;;;25.93;31.40
7337;BME280;54510;42.016;23.098;2022-11-02T11:43:19;-21851.44;;;26.27;31.54
7337;BME280;54510;42.016;23.098;2022-11-02T11:46:06;-21851.84;;;26.29;31.04
7337;BME280;54510;42.016;23.098;2022-11-02T11:48:38;-21852.53;;;26.31;31.27
7337;BME280;54510;42.016;23.098;2022-11-02T11:54:25;-21863.28;;;26.71;30.65
7337;BME280;54510;42.016;23.098;2022-11-02T11:56:53;-21870.59;;;26.99;30.51
7337;BME280;54510;42.016;23.098;2022-11-02T11:59:41;-21872.38;;;27.05;29.94
7337;BME280;54510;42.016;23.098;2022-11-02T12:02:40;-21871.81;;;27.03;29.73
7337;BME280;54510;42.016;23.098;2022-11-02T12:10:22;-21878.06;;;27.27;29.57
7337;BME280;54510;42.016;23.098;2022-11-02T12:15:45;-21887.03;;;27.60;29.53
7337;BME280;54510;42.016;23.098;2022-11-02T12:21:19;-21893.81;;;27.85;28.23
7337;BME280;54510;42.016;23.098;2022-11-02T12:24:52;-21894.34;;;27.87;27.62
7337;BME280;54510;42.016;23.098;2022-11-02T12:30:09;-21905.75;;;28.30;26.88
7337;BME280;54510;42.016;23.098;2022-11-02T12:35:25;-21918.06;;;28.76;26.92
7337;BME280;54510;42.016;23.098;2022-11-02T12:43:37;-21936.88;;;29.47;25.01
7337;BME280;54510;42.016;23.098;2022-11-02T12:54:19;-21962.69;;;30.43;24.77
7337;BME280;54510;42.016;23.098;2022-11-02T12:56:52;-21965.38;;;30.53;23.79
7337;BME280;54510;42.016;23.098;2022-11-02T12:59:25;-21970.09;;;30.71;23.78
7337;BME280;54510;42.016;23.098;2022-11-02T13:01:56;-21977.13;;;30.97;24.86
7337;BME280;54510;42.016;23.098;2022-11-02T13:04:31;-21969.69;;;30.70;23.49
7337;BME280;54510;42.016;23.098;2022-11-02T13:07:05;-21969.44;;;30.69;23.30
7337;BME280;54510;42.016;23.098;2022-11-02T13:09:35;-21966.72;;;30.58;22.70
7337;BME280;54510;42.016;23.098;2022-11-02T13:12:15;-21962.69;;;30.43;23.16
7337;BME280;54510;42.016;23.098;2022-11-02T13:14:46;-21967.94;;;30.63;23.66
7337;BME280;54510;42.016;23.098;2022-11-02T13:19:54;-21976.84;;;30.96;23.26
7337;BME280;54510;42.016;23.098;2022-11-02T13:22:27;-21982.78;;;31.19;22.96
7337;BME280;54510;42.016;23.098;2022-11-02T13:24:57;-21987.78;;;31.37;22.75
7337;BME280;54510;42.016;23.098;2022-11-02T13:27:32;-21992.22;;;31.54;22.53
7337;BME280;54510;42.016;23.098;2022-11-02T13:30:02;-21982.53;;;31.18;22.23
7337;BME280;54510;42.016;23.098;2022-11-02T13:32:40;-21991.41;;;31.51;22.08
7337;BME280;54510;42.016;23.098;2022-11-02T13:35:17;-21985.22;;;31.28;22.39
7337;BME280;54510;42.016;23.098;2022-11-02T13:37:47;-21990.19;;;31.47;22.90
7337;BME280;54510;42.016;23.098;2022-11-02T13:40:32;-21988.84;;;31.42;23.24
7337;BME280;54510;42.016;23.098;2022-11-02T13:50:53;-21993.03;;;31.57;22.77
7337;BME280;54510;42.016;23.098;2022-11-02T13:53:25;-21992.63;;;31.56;23.27
7337;BME280;54510;42.016;23.098;2022-11-02T13:55:53;-21988.19;;;31.39;24.10
7337;BME280;54510;42.016;23.098;2022-11-02T13:58:23;-21982.38;;;31.17;26.16
7337;BME280;54510;42.016;23.098;2022-11-02T14:00:51;-21977.94;;;31.00;27.71
7337;BME280;54510;42.016;23.098;2022-11-02T14:03:25;-21980.50;;;31.10;26.56
7337;BME280;54510;42.016;23.098;2022-11-02T14:06:08;-21979.81;;;31.08;25.74
7337;BME280;54510;42.016;23.098;2022-11-02T14:08:38;-21971.31;;;30.76;24.46
7337;BME280;54510;42.016;23.098;2022-11-02T14:11:22;-21975.50;;;30.91;24.47
7337;BME280;54510;42.016;23.098;2022-11-02T14:21:45;-21989.81;;;31.45;23.60
7337;BME280;54510;42.016;23.098;2022-11-02T14:27:14;-21966.19;;;30.56;24.94
7337;BME280;54510;42.016;23.098;2022-11-02T14:29:53;-21953.09;;;30.07;28.06
7337;BME280;54510;42.016;23.098;2022-11-02T14:49:28;-21892.03;;;27.79;29.28
7337;BME280;54510;42.016;23.098;2022-11-02T14:51:59;-21891.91;;;27.78;29.04
7337;BME280;54510;42.016;23.098;2022-11-02T14:54:26;-21879.97;;;27.34;29.69
7337;BME280;54510;42.016;23.098;2022-11-02T14:59:48;-21850.09;;;26.22;31.35
7337;BME280;54510;42.016;23.098;2022-11-02T15:02:25;-21842.63;;;25.94;31.65
7337;BME280;54510;42.016;23.098;2022-11-02T15:04:54;-21835.41;;;25.68;32.02
7337;BME280;54510;42.016;23.098;2022-11-02T15:07:33;-21826.28;;;25.34;32.82
7337;BME280;54510;42.016;23.098;2022-11-02T15:10:03;-21823.44;;;25.23;32.88
7337;BME280;54510;42.016;23.098;2022-11-02T15:12:39;-21821.25;;;25.15;32.98